RKPK

Gimhae International Airport

Busan, South Korea
TAF RKPK 210500Z 2106/2212 30010KT 9999 FEW030 TNM03/2121Z TX11/2206Z BECMG 2204/2205 18008KT BECMG 2209/2210 30010KT
Issued Valid From Valid To
Jan-21 @ 05:00 UTC
(5 hours ago)
Jan-21 @ 06:00 UTC
(4 hours ago)
Jan-22 @ 12:00 UTC
(-1 days ago)
Jan-21 @ 06:00 to Jan-22 @ 04:00
TAF RKPK 210500Z 2106/2212 30010KT 9999 FEW030 TNM03/2121Z TX11/2206Z
Wind Visibility Clouds
300° at 10 knots 10,000+ meters
  • Few at 3,000' AGL
Becoming Jan-22 @ 04:00 to Jan-22 @ 09:00
BECMG 2204/2205 18008KT
Wind Visibility Clouds
180° at 8 knots 10,000+ meters
  • Few at 3,000' AGL
Becoming Jan-22 @ 09:00 to Jan-22 @ 12:00
BECMG 2209/2210 30010KT
Wind Visibility Clouds
300° at 10 knots 10,000+ meters
  • Few at 3,000' AGL
TAF RKPK 210500Z 2106/2212 30010KT 9999 FEW030 TNM03/2121Z TX11/2206Z BECMG 2204/2205 18008KT BECMG 2209/2210 30010KT
Issued Jan-21 @ 05:00 UTC
(5 hours ago)
Valid From Jan-21 @ 06:00 UTC
(4 hours ago)
Valid To Jan-22 @ 12:00 UTC
(-1 days ago)
Jan-21 @ 06:00 - Jan-22 @ 04:00
Wind Visibility
300° at 10 knots 10,000+ meters
Clouds
  • Few at 3,000' AGL
Becoming Jan-22 @ 04:00 - Jan-22 @ 09:00
Wind Visibility
180° at 8 knots 10,000+ meters
Clouds
  • Few at 3,000' AGL
Becoming Jan-22 @ 09:00 - Jan-22 @ 12:00
Wind Visibility
300° at 10 knots 10,000+ meters
Clouds
  • Few at 3,000' AGL